SAVC Airport Information

Runway Information
Runway 7 Length 9219 ft width 164 ft
Elevation 189 ft Threshold 0 ft Heading 79
Runway 25 Length 9219 ft Width 164 ft
Elevation 105 ft Threshold 0 ft Heading 259
Airport Frequencies
Type ARR Name COMODORO C Frequency 124.3 MHZ
Type TWR Name COMODORO T Frequency 119.9 MHZ
Airport Navaids
Type NDB Name Comodoro Rivadavia Frequency 280 KHZ
Type VOR-DME Name Comodoro Rivadavia Frequency 117500 KHZ
Type NDB Name Comodoro Rivadavia Frequency 260 KHZ
Airport Weather Information & NOTAM
ADDS - METARS form results

(0813 UTC 22 May 2018)
 
METAR text: SAVC 220800Z 27010KT CAVOK 10/04 Q1016
Conditions at: SAVC (COMODORO RIVADAV, AR) observed 0800 UTC 22 May 2018
Temperature: 10.0°C (50°F)
Dewpoint: 4.0°C (39°F) [RH = 66%]
Pressure (altimeter): 30.00 inches Hg (1016.0 mb)
Winds: from the W (270 degrees) at 12 MPH (10 knots; 5.2 m/s)
Visibility: 6 or more miles (10+ km)
Ceiling: ceiling and visibility are OK
Clouds: unknown
Weather: no significant weather observed at this time